Time;durP1;ratioP1;P1;durP2;ratioP2;P2;SDS_P1;SDS_P2;PMS_P1;PMS_P2;Temp;Humidity;BMP_temperature;BMP_pressure;BME280_temperature;BME280_humidity;BME280_pressure;Samples;Min_cycle;Max_cycle;Signal;HPM_P1;HPM_P2
2021/03/16 00:00:42;;;;;;;6.18;4.25;;;;;;;4.36;41.53;100828.00;4974867;28;98123;-73
2021/03/16 00:03:28;;;;;;;3.90;3.58;;;;;;;4.32;41.76;100835.72;4969248;28;96995;-74
2021/03/16 00:06:15;;;;;;;4.68;4.28;;;;;;;4.36;41.55;100846.44;4953820;28;97460;-73
2021/03/16 00:08:44;;;;;;;4.90;3.85;;;;;;;4.39;41.63;100849.22;4971339;28;99789;-73
2021/03/16 00:11:14;;;;;;;4.38;3.70;;;;;;;4.39;41.64;100850.97;4974300;28;96895;-73
2021/03/16 00:13:41;;;;;;;4.68;4.32;;;;;;;4.38;41.64;100864.94;4978480;28;96829;-75
2021/03/16 00:16:08;;;;;;;4.15;3.72;;;;;;;4.26;41.69;100860.03;4977119;28;96895;-73
2021/03/16 00:18:35;;;;;;;4.60;3.80;;;;;;;4.23;42.01;100851.97;4975882;28;96894;-73
2021/03/16 00:21:03;;;;;;;4.63;4.32;;;;;;;4.24;41.65;100859.06;4974467;28;97482;-73
2021/03/16 00:23:30;;;;;;;4.88;4.40;;;;;;;4.19;41.81;100866.72;4976782;28;97352;-73
2021/03/16 00:25:57;;;;;;;5.00;4.65;;;;;;;4.17;41.64;100862.22;4976951;28;97032;-73
2021/03/16 00:28:25;;;;;;;4.00;3.78;;;;;;;4.13;41.95;100861.16;4988003;28;96792;-73
2021/03/16 00:30:52;;;;;;;4.45;4.07;;;;;;;4.10;41.83;100861.00;5004982;28;99619;-74
2021/03/16 00:33:19;;;;;;;7.63;4.95;;;;;;;4.12;41.31;100875.16;4973718;28;96779;-73
2021/03/16 00:35:46;;;;;;;5.43;4.78;;;;;;;4.16;41.69;100877.13;4990126;28;97478;-74
2021/03/16 00:38:13;;;;;;;4.85;4.65;;;;;;;4.21;41.50;100879.97;4955534;28;98935;-73
2021/03/16 00:40:41;;;;;;;5.03;4.53;;;;;;;4.22;41.16;100869.50;4974923;28;99130;-74
2021/03/16 00:43:08;;;;;;;3.90;3.70;;;;;;;4.20;41.26;100879.06;4970940;28;96887;-74
2021/03/16 00:45:35;;;;;;;5.15;4.72;;;;;;;4.27;41.25;100885.53;4976832;28;97415;-73
2021/03/16 00:48:05;;;;;;;5.00;4.70;;;;;;;4.21;41.14;100880.88;5008164;28;96834;-74
2021/03/16 00:50:32;;;;;;;4.82;4.53;;;;;;;4.08;41.52;100893.34;4989619;28;99807;-73
2021/03/16 00:52:59;;;;;;;4.53;4.22;;;;;;;4.04;41.68;100897.56;4991881;28;96848;-75
2021/03/16 00:55:38;;;;;;;4.68;4.30;;;;;;;4.01;41.45;100905.31;5007269;27;96830;-74
2021/03/16 00:58:06;;;;;;;6.00;5.35;;;;;;;4.01;41.40;100902.69;4957776;28;100209;-73
2021/03/16 01:00:33;;;;;;;6.40;4.70;;;;;;;4.06;41.49;100901.19;4971838;28;98906;-73
2021/03/16 01:03:00;;;;;;;4.97;4.68;;;;;;;4.10;41.43;100900.50;4972745;28;96876;-74
2021/03/16 01:05:28;;;;;;;5.13;4.60;;;;;;;4.16;41.13;100897.28;4974938;28;97452;-74
2021/03/16 01:07:55;;;;;;;5.07;4.65;;;;;;;4.21;41.18;100901.03;4992090;28;96999;-74
2021/03/16 01:10:24;;;;;;;5.00;4.47;;;;;;;4.23;41.26;100905.56;4989679;28;98429;-74
2021/03/16 01:12:51;;;;;;;4.78;4.38;;;;;;;4.22;41.04;100911.63;4989124;28;96924;-74
2021/03/16 01:15:19;;;;;;;5.50;4.75;;;;;;;4.25;41.16;100918.78;5007848;27;96746;-73
2021/03/16 01:17:46;;;;;;;5.30;4.85;;;;;;;4.28;41.07;100918.91;4970538;28;98674;-74
2021/03/16 01:20:15;;;;;;;6.28;4.35;;;;;;;4.31;41.07;100919.09;4974441;28;96954;-74
2021/03/16 01:22:42;;;;;;;5.07;4.78;;;;;;;4.36;40.93;100920.22;4972587;28;96944;-74
2021/03/16 01:25:11;;;;;;;5.20;4.70;;;;;;;4.34;40.95;100928.84;4970946;28;96961;-73
2021/03/16 01:27:38;;;;;;;5.43;4.85;;;;;;;4.26;40.98;100928.50;4976736;28;97848;-73
2021/03/16 01:30:07;;;;;;;5.20;4.70;;;;;;;4.26;41.25;100924.97;4987300;28;98518;-73
2021/03/16 01:32:35;;;;;;;5.28;4.82;;;;;;;4.27;41.09;100938.22;5004215;28;96916;-74
2021/03/16 01:35:03;;;;;;;7.70;5.20;;;;;;;4.31;41.39;100934.00;5006217;28;97432;-73
2021/03/16 01:37:30;;;;;;;5.53;4.88;;;;;;;4.36;41.25;100953.53;4974765;28;97666;-74
2021/03/16 01:39:57;;;;;;;6.25;4.50;;;;;;;4.31;41.41;100945.44;4971454;28;96820;-74
2021/03/16 01:42:24;;;;;;;4.82;4.35;;;;;;;4.34;41.21;100939.38;4971515;28;97086;-73
2021/03/16 01:44:51;;;;;;;4.93;4.47;;;;;;;4.33;40.88;100943.78;4972567;28;96886;-74
2021/03/16 01:47:19;;;;;;;5.40;4.90;;;;;;;4.38;41.33;100938.72;4972290;28;97954;-73
2021/03/16 01:49:47;;;;;;;5.38;4.60;;;;;;;4.45;40.94;100946.09;4972527;28;100195;-75
2021/03/16 01:52:14;;;;;;;6.45;4.60;;;;;;;4.43;41.25;100946.00;4954999;28;96751;-75
2021/03/16 01:54:42;;;;;;;5.25;4.75;;;;;;;4.38;41.47;100938.72;4977287;28;96949;-74
2021/03/16 01:57:09;;;;;;;5.75;4.43;;;;;;;4.35;41.17;100946.47;4978164;28;97933;-73
2021/03/16 01:59:55;;;;;;;9.80;4.80;;;;;;;4.30;41.48;100948.00;4978271;28;97249;-73
2021/03/16 02:02:41;;;;;;;5.30;4.90;;;;;;;4.27;41.49;100948.75;5001233;27;97645;-73
2021/03/16 02:05:28;;;;;;;5.07;4.35;;;;;;;4.28;41.07;100949.66;4972562;28;97607;-75
2021/03/16 02:08:18;;;;;;;5.10;4.45;;;;;;;4.23;41.26;100950.31;4967506;28;98266;-73
2021/03/16 02:11:07;;;;;;;5.45;5.13;;;;;;;4.23;41.37;100945.06;4972852;28;99692;-73
2021/03/16 02:13:56;;;;;;;5.78;5.00;;;;;;;4.30;41.24;100953.28;4972037;28;96922;-73
2021/03/16 02:16:47;;;;;;;7.88;5.55;;;;;;;4.36;40.92;100953.53;5005543;28;96759;-73
2021/03/16 02:19:55;;;;;;;5.78;4.68;;;;;;;4.29;41.51;100962.91;4970050;28;96914;-73
2021/03/16 02:22:43;;;;;;;4.65;4.25;;;;;;;4.19;41.35;100961.53;4971491;28;97737;-73
2021/03/16 02:25:41;;;;;;;5.13;4.55;;;;;;;4.14;41.78;100964.75;4971469;28;97330;-74
2021/03/16 02:28:34;;;;;;;6.90;4.78;;;;;;;4.14;41.63;100973.56;4975223;28;98313;-74
2021/03/16 02:31:21;;;;;;;7.25;4.95;;;;;;;4.11;41.63;100973.44;4971852;28;97437;-73
2021/03/16 02:34:08;;;;;;;5.32;4.80;;;;;;;3.99;41.51;100982.41;4973472;28;97641;-73
2021/03/16 02:36:54;;;;;;;6.65;5.03;;;;;;;4.05;41.53;100973.13;4972923;28;96983;-72
2021/03/16 02:39:40;;;;;;;6.05;5.10;;;;;;;4.02;41.62;100987.84;4975158;28;96675;-72
2021/03/16 02:42:28;;;;;;;5.20;4.70;;;;;;;4.00;41.80;100995.69;4972074;28;100913;-72
2021/03/16 02:45:15;;;;;;;5.28;4.78;;;;;;;3.99;41.46;101009.66;4972942;28;100327;-72
2021/03/16 02:48:02;;;;;;;8.68;5.47;;;;;;;4.03;41.18;101008.09;4975680;28;96958;-72
2021/03/16 02:50:48;;;;;;;5.40;4.82;;;;;;;4.02;41.16;101011.56;4972911;28;97034;-74
2021/03/16 02:53:34;;;;;;;6.15;5.30;;;;;;;4.04;41.28;101010.78;4976370;28;97432;-72
2021/03/16 02:56:20;;;;;;;6.53;4.82;;;;;;;4.05;41.37;101012.63;4971486;28;98369;-72
2021/03/16 02:59:09;;;;;;;4.75;4.43;;;;;;;3.95;41.55;101012.94;4972558;28;96780;-72
2021/03/16 03:01:55;;;;;;;7.18;5.43;;;;;;;3.96;41.30;101014.78;5002241;28;96920;-73
2021/03/16 03:04:46;;;;;;;6.22;5.57;;;;;;;3.92;41.66;101017.16;4971114;28;99850;-72
2021/03/16 03:07:31;;;;;;;8.07;5.30;;;;;;;3.85;41.51;101021.22;4972149;28;99711;-73
2021/03/16 03:10:17;;;;;;;5.68;5.28;;;;;;;3.76;41.45;101026.00;4977104;28;96819;-72
2021/03/16 03:13:04;;;;;;;7.05;5.15;;;;;;;3.77;41.18;101034.81;4976194;28;96716;-72
2021/03/16 03:15:49;;;;;;;5.43;5.03;;;;;;;3.75;41.55;101037.34;4976291;28;97342;-72
2021/03/16 03:18:35;;;;;;;6.18;5.65;;;;;;;3.75;41.74;101047.88;4977714;28;96849;-72
2021/03/16 03:21:24;;;;;;;6.93;5.13;;;;;;;3.71;41.26;101050.28;4974288;28;96947;-73
2021/03/16 03:24:13;;;;;;;6.10;5.47;;;;;;;3.63;41.52;101051.53;4975921;28;96912;-74
2021/03/16 03:27:01;;;;;;;8.43;5.10;;;;;;;3.56;41.82;101066.13;5009496;27;98439;-73
2021/03/16 03:29:48;;;;;;;10.00;5.20;;;;;;;3.54;41.81;101066.84;4976299;28;99636;-73
2021/03/16 03:32:34;;;;;;;8.55;5.40;;;;;;;3.56;41.61;101073.09;5006501;27;96878;-73
2021/03/16 03:35:20;;;;;;;8.82;5.40;;;;;;;3.46;41.43;101076.94;4971594;28;96764;-72
2021/03/16 03:38:08;;;;;;;9.85;4.68;;;;;;;3.41;41.66;101075.81;4972890;28;98913;-72
2021/03/16 03:41:13;;;;;;;8.88;5.63;;;;;;;3.40;41.58;101081.91;4975361;28;98486;-72
2021/03/16 03:43:58;;;;;;;5.15;4.82;;;;;;;3.37;41.74;101086.97;5010557;28;97012;-73
2021/03/16 03:46:44;;;;;;;5.50;5.00;;;;;;;3.32;42.06;101084.91;4977596;28;96915;-73
2021/03/16 03:49:31;;;;;;;6.43;5.80;;;;;;;3.29;41.96;101093.56;4973240;28;97930;-71
2021/03/16 03:52:17;;;;;;;6.20;5.63;;;;;;;3.27;41.88;101095.19;4974516;28;100039;-72
2021/03/16 03:55:06;;;;;;;5.60;5.13;;;;;;;3.16;42.32;101091.06;4979452;28;96748;-72
2021/03/16 03:58:09;;;;;;;6.00;5.60;;;;;;;3.14;42.03;101104.13;5005847;27;97897;-73
2021/03/16 04:00:55;;;;;;;5.15;4.55;;;;;;;3.10;41.68;101098.59;4974104;28;99588;-72
2021/03/16 04:03:41;;;;;;;7.32;5.85;;;;;;;3.11;41.84;101106.56;4971812;28;98782;-72
2021/03/16 04:06:27;;;;;;;5.72;5.10;;;;;;;3.08;42.19;101114.28;4973864;28;97030;-72
2021/03/16 04:09:13;;;;;;;8.38;5.20;;;;;;;2.94;42.54;101103.81;4969660;28;96893;-72
2021/03/16 04:12:00;;;;;;;9.00;5.00;;;;;;;2.92;42.41;101106.38;4974452;28;99515;-72
2021/03/16 04:15:08;;;;;;;6.63;5.15;;;;;;;2.81;41.97;101125.88;4975348;28;97155;-72
2021/03/16 04:17:54;;;;;;;9.88;5.60;;;;;;;2.78;42.20;101122.16;5006251;27;97664;-73
2021/03/16 04:20:40;;;;;;;8.05;5.10;;;;;;;2.69;43.00;101129.53;5009360;28;97155;-73
2021/03/16 04:23:25;;;;;;;10.20;5.38;;;;;;;2.70;42.32;101131.31;4976305;28;97409;-72
2021/03/16 04:26:11;;;;;;;8.13;5.35;;;;;;;2.65;42.62;101135.41;4976317;28;97342;-72
2021/03/16 04:28:57;;;;;;;7.38;6.00;;;;;;;2.62;42.46;101135.25;4974567;28;96832;-73
2021/03/16 04:31:43;;;;;;;7.63;5.68;;;;;;;2.62;42.48;101130.88;4971554;28;96876;-73
2021/03/16 04:34:28;;;;;;;9.13;6.13;;;;;;;2.50;42.34;101134.50;4972786;28;97904;-72
2021/03/16 04:37:15;;;;;;;6.80;6.20;;;;;;;2.42;42.67;101141.03;4973482;28;98456;-72
2021/03/16 04:40:00;;;;;;;6.68;6.13;;;;;;;2.33;42.23;101141.38;5005102;27;96851;-72
2021/03/16 04:42:46;;;;;;;6.80;6.10;;;;;;;2.31;42.62;101137.75;4974363;28;97065;-73
2021/03/16 04:45:33;;;;;;;7.13;6.47;;;;;;;2.29;42.31;101149.00;4973818;28;99200;-72
2021/03/16 04:48:19;;;;;;;7.82;6.57;;;;;;;2.24;42.42;101150.47;4973382;28;99916;-72
2021/03/16 04:51:05;;;;;;;10.50;6.55;;;;;;;2.17;43.41;101146.53;4973865;28;98196;-72
2021/03/16 04:53:50;;;;;;;8.45;6.45;;;;;;;2.09;43.46;101160.94;4976186;28;97297;-72
2021/03/16 04:56:37;;;;;;;9.05;6.60;;;;;;;2.10;43.34;101161.03;4974029;28;100412;-72
2021/03/16 04:59:22;;;;;;;10.02;7.80;;;;;;;2.10;42.95;101157.47;4974832;28;97557;-72
2021/03/16 05:02:09;;;;;;;11.65;7.53;;;;;;;2.06;42.98;101163.31;4964238;28;97888;-72
2021/03/16 05:04:55;;;;;;;8.73;6.50;;;;;;;2.02;42.64;101164.84;4965130;28;96757;-72
2021/03/16 05:07:40;;;;;;;7.93;6.57;;;;;;;1.95;43.04;101170.53;5004642;27;99239;-72
2021/03/16 05:10:44;;;;;;;10.80;6.63;;;;;;;1.92;43.29;101172.06;4971903;28;98125;-72
2021/03/16 05:13:29;;;;;;;11.15;6.70;;;;;;;1.89;42.94;101177.13;4972650;28;96730;-72
2021/03/16 05:16:15;;;;;;;9.38;6.90;;;;;;;1.85;42.97;101176.00;4977891;28;96791;-73
2021/03/16 05:19:03;;;;;;;7.90;7.13;;;;;;;1.87;43.01;101186.63;5008463;28;98254;-73
2021/03/16 05:21:49;;;;;;;11.18;7.85;;;;;;;1.82;42.82;101191.56;4972313;28;99346;-73
2021/03/16 05:24:35;;;;;;;8.73;6.22;;;;;;;1.75;42.92;101205.13;4977026;28;96853;-73
2021/03/16 05:27:20;;;;;;;9.68;6.38;;;;;;;1.73;43.12;101206.75;4976477;28;96928;-73
2021/03/16 05:30:07;;;;;;;6.93;5.88;;;;;;;1.67;43.58;101198.47;5009396;27;99681;-73
2021/03/16 05:32:56;;;;;;;5.68;5.28;;;;;;;1.73;43.66;101208.44;4972760;28;99809;-73
2021/03/16 05:35:43;;;;;;;6.50;5.60;;;;;;;1.71;43.65;101218.84;4975748;28;96804;-73
2021/03/16 05:38:29;;;;;;;8.07;5.40;;;;;;;1.71;43.22;101216.22;4974810;28;97396;-73
2021/03/16 05:41:14;;;;;;;7.75;5.95;;;;;;;1.71;43.67;101224.09;4972594;28;99890;-73
2021/03/16 05:44:01;;;;;;;5.80;5.40;;;;;;;1.65;43.36;101220.19;4974072;28;99582;-73
2021/03/16 05:46:47;;;;;;;6.47;5.72;;;;;;;1.65;43.26;101222.81;5003345;28;97189;-73
2021/03/16 05:49:34;;;;;;;7.03;5.07;;;;;;;1.63;43.09;101225.34;4970042;28;96752;-73
2021/03/16 05:52:21;;;;;;;6.20;5.55;;;;;;;1.59;43.58;101239.06;5003883;27;97228;-72
2021/03/16 05:55:08;;;;;;;5.63;4.85;;;;;;;1.61;43.09;101231.28;5004605;28;99237;-74
2021/03/16 05:57:53;;;;;;;5.70;5.20;;;;;;;1.59;42.92;101228.56;4972622;28;97301;-72
2021/03/16 06:00:39;;;;;;;7.55;5.82;;;;;;;1.61;42.92;101229.59;4974795;28;97244;-72
2021/03/16 06:03:24;;;;;;;5.38;4.90;;;;;;;1.67;43.10;101253.56;5007371;28;99489;-72
2021/03/16 06:06:31;;;;;;;5.75;5.22;;;;;;;1.68;43.00;101239.66;4969752;28;98357;-72
2021/03/16 06:09:17;;;;;;;5.30;4.90;;;;;;;1.69;43.15;101256.31;4972161;28;96792;-73
2021/03/16 06:12:04;;;;;;;5.90;5.47;;;;;;;1.66;42.83;101251.75;4976075;28;96984;-73
2021/03/16 06:14:54;;;;;;;5.55;5.05;;;;;;;1.63;43.45;101256.81;4975342;28;98808;-73
2021/03/16 06:17:44;;;;;;;5.63;5.15;;;;;;;1.69;43.17;101261.56;5007278;28;97753;-73
2021/03/16 06:20:31;;;;;;;6.90;5.10;;;;;;;1.71;42.69;101263.44;4975977;28;96955;-72
2021/03/16 06:23:16;;;;;;;5.70;5.20;;;;;;;1.76;42.96;101263.75;4975869;28;97076;-73
2021/03/16 06:26:04;;;;;;;9.20;6.68;;;;;;;1.75;42.91;101267.16;4971606;28;97967;-72
2021/03/16 06:28:50;;;;;;;6.78;6.05;;;;;;;1.83;42.70;101277.38;4968786;28;97601;-72
2021/03/16 06:31:36;;;;;;;7.93;6.00;;;;;;;1.83;42.54;101271.19;4955616;28;96939;-73
2021/03/16 06:34:22;;;;;;;11.18;6.60;;;;;;;1.87;42.52;101271.47;4967163;28;97121;-72
2021/03/16 06:37:17;;;;;;;7.43;6.75;;;;;;;1.83;43.03;101266.88;5006032;27;98802;-72
2021/03/16 06:40:04;;;;;;;8.20;7.47;;;;;;;1.86;42.82;101274.00;4972785;28;100959;-71
2021/03/16 06:43:01;;;;;;;8.15;7.05;;;;;;;1.88;43.86;101280.25;5011358;28;97641;-72
2021/03/16 06:45:51;;;;;;;13.55;8.05;;;;;;;1.92;42.83;101279.66;4980895;28;97188;-72
2021/03/16 06:48:37;;;;;;;8.73;7.85;;;;;;;1.89;43.45;101277.72;4979585;28;98960;-72
2021/03/16 06:51:26;;;;;;;12.20;9.00;;;;;;;1.89;42.81;101297.84;4975076;28;97511;-72
2021/03/16 06:54:13;;;;;;;8.80;8.00;;;;;;;1.90;43.30;101297.94;4969473;28;97267;-72
2021/03/16 06:57:00;;;;;;;9.98;8.70;;;;;;;1.97;43.27;101297.50;4969368;28;97311;-72
2021/03/16 06:59:48;;;;;;;8.82;7.43;;;;;;;2.03;43.36;101297.91;5005610;28;97813;-72
2021/03/16 07:02:34;;;;;;;9.25;8.38;;;;;;;2.05;42.73;101295.38;4965669;28;97122;-71
2021/03/16 07:05:27;;;;;;;9.77;7.70;;;;;;;2.07;43.40;101302.50;4966317;28;97433;-72
2021/03/16 07:08:14;;;;;;;11.73;7.93;;;;;;;2.17;42.29;101306.66;5002088;28;97304;-72
2021/03/16 07:11:01;;;;;;;11.73;7.68;;;;;;;2.22;42.49;101306.97;4966906;28;96946;-73
2021/03/16 07:13:46;;;;;;;9.68;7.40;;;;;;;2.27;42.95;101302.91;4966941;28;98504;-72
2021/03/16 07:16:33;;;;;;;8.90;7.35;;;;;;;2.37;42.50;101310.53;5001652;28;97124;-72
2021/03/16 07:19:19;;;;;;;8.18;7.32;;;;;;;2.44;42.77;101312.75;4970112;28;96869;-73
2021/03/16 07:22:07;;;;;;;9.73;7.25;;;;;;;2.48;42.50;101315.66;4971890;28;97724;-72
2021/03/16 07:24:54;;;;;;;8.07;7.28;;;;;;;2.46;42.61;101317.28;4978830;28;99030;-72
2021/03/16 07:27:40;;;;;;;9.10;7.00;;;;;;;2.60;41.88;101315.50;5002086;28;97189;-72
2021/03/16 07:30:26;;;;;;;10.70;7.47;;;;;;;2.65;41.86;101329.81;4969774;28;98555;-73
2021/03/16 07:33:31;;;;;;;8.50;7.03;;;;;;;2.64;42.52;101334.16;4970001;28;99628;-73
2021/03/16 07:36:17;;;;;;;7.70;6.90;;;;;;;2.63;42.56;101342.88;5001600;28;97053;-73
2021/03/16 07:39:06;;;;;;;9.95;7.97;;;;;;;2.64;42.28;101346.38;4965493;28;96789;-73
2021/03/16 07:41:52;;;;;;;9.35;7.97;;;;;;;2.69;42.60;101347.59;4970045;28;96961;-72
2021/03/16 07:44:41;;;;;;;9.50;7.57;;;;;;;2.63;42.07;101352.47;4999601;28;98155;-72
2021/03/16 07:47:34;;;;;;;8.57;7.40;;;;;;;2.65;43.19;101356.09;4968721;28;99670;-72
2021/03/16 07:50:28;;;;;;;7.53;6.82;;;;;;;2.71;42.12;101349.47;4970042;28;96936;-72
2021/03/16 07:53:24;;;;;;;13.93;7.75;;;;;;;2.79;42.81;101355.22;4972269;28;97045;-72
2021/03/16 07:56:12;;;;;;;15.18;7.22;;;;;;;2.91;42.30;101356.88;4971185;28;99176;-72
2021/03/16 07:58:58;;;;;;;13.48;7.72;;;;;;;2.95;41.58;101365.84;4968195;28;97591;-73
2021/03/16 08:01:48;;;;;;;14.30;8.00;;;;;;;2.97;42.25;101375.66;4958297;28;98363;-73
2021/03/16 08:04:35;;;;;;;8.05;7.40;;;;;;;2.98;42.49;101374.81;4962520;28;97274;-75
2021/03/16 08:07:23;;;;;;;13.32;7.65;;;;;;;2.97;41.77;101378.28;5005891;28;99314;-73
2021/03/16 08:10:10;;;;;;;8.75;7.45;;;;;;;2.99;42.27;101378.38;4970759;28;100163;-74
2021/03/16 08:12:59;;;;;;;11.63;7.75;;;;;;;3.02;41.73;101376.81;4971969;28;97280;-74
2021/03/16 08:15:47;;;;;;;12.77;7.85;;;;;;;3.13;41.69;101382.75;4975240;28;97453;-75
2021/03/16 08:18:34;;;;;;;12.60;8.30;;;;;;;3.18;41.90;101389.19;4968153;28;98405;-73
2021/03/16 08:21:21;;;;;;;10.23;6.88;;;;;;;3.13;42.33;101393.28;5004640;28;99825;-74
2021/03/16 08:24:09;;;;;;;9.95;7.85;;;;;;;3.19;42.18;101393.63;4976790;28;96756;-73
2021/03/16 08:26:55;;;;;;;12.15;7.72;;;;;;;3.18;42.36;101391.81;4973620;28;96899;-73
2021/03/16 08:29:44;;;;;;;7.90;6.72;;;;;;;3.26;42.04;101389.66;4964195;28;97780;-75
2021/03/16 08:32:31;;;;;;;11.48;7.03;;;;;;;3.32;41.54;101393.56;5002583;28;98773;-74
2021/03/16 08:35:17;;;;;;;8.20;7.32;;;;;;;3.34;42.15;101394.56;4974461;28;97487;-74
2021/03/16 08:38:03;;;;;;;14.30;7.75;;;;;;;3.45;41.82;101388.22;4970803;28;97294;-74
2021/03/16 08:41:02;;;;;;;9.02;8.07;;;;;;;3.49;41.74;101398.09;4972745;28;97052;-74
2021/03/16 08:43:49;;;;;;;12.98;8.90;;;;;;;3.48;41.47;101395.38;4977866;28;97724;-74
2021/03/16 08:46:36;;;;;;;9.95;8.13;;;;;;;3.51;41.48;101399.09;4966279;28;97024;-73
2021/03/16 08:49:24;;;;;;;9.88;7.70;;;;;;;3.52;41.50;101393.00;4962658;28;96780;-74
2021/03/16 08:52:20;;;;;;;11.65;7.85;;;;;;;3.52;42.12;101414.06;5005335;27;98997;-73
2021/03/16 08:55:07;;;;;;;10.98;7.75;;;;;;;3.59;41.74;101418.88;4969828;28;96988;-75
2021/03/16 08:57:55;;;;;;;12.35;7.88;;;;;;;3.55;41.86;101408.97;4972518;28;96829;-75
2021/03/16 09:00:41;;;;;;;9.93;7.80;;;;;;;3.57;41.85;101412.59;4974086;28;96939;-75
2021/03/16 09:03:30;;;;;;;13.18;7.35;;;;;;;3.71;41.40;101410.81;4969191;28;97908;-75
2021/03/16 09:06:17;;;;;;;12.13;7.32;;;;;;;3.89;41.11;101410.19;4975071;28;97962;-73
2021/03/16 09:09:04;;;;;;;7.43;6.80;;;;;;;3.97;41.08;101414.13;5005552;28;96966;-75
2021/03/16 09:11:50;;;;;;;14.02;8.20;;;;;;;4.01;41.17;101413.50;4972239;28;96856;-74
2021/03/16 09:14:37;;;;;;;8.07;6.65;;;;;;;4.09;40.92;101417.50;5001276;27;99012;-75
2021/03/16 09:17:23;;;;;;;7.90;6.32;;;;;;;4.17;40.94;101413.53;4967845;28;99739;-73
2021/03/16 09:20:11;;;;;;;10.02;6.53;;;;;;;4.31;40.69;101411.72;4973381;28;96865;-74
2021/03/16 09:22:59;;;;;;;10.48;6.10;;;;;;;4.46;40.52;101414.28;4973316;28;96935;-75
2021/03/16 09:25:46;;;;;;;8.98;6.63;;;;;;;4.49;40.51;101414.44;4969106;28;97810;-73
2021/03/16 09:28:32;;;;;;;8.75;6.22;;;;;;;4.52;40.61;101412.00;4955925;28;97963;-73
2021/03/16 09:31:20;;;;;;;8.35;6.43;;;;;;;4.50;40.42;101408.38;4969094;28;97306;-75
2021/03/16 09:34:06;;;;;;;7.00;5.88;;;;;;;4.59;40.24;101415.03;5002451;27;97071;-73
2021/03/16 09:36:58;;;;;;;8.30;5.65;;;;;;;4.61;40.22;101413.38;4996889;28;99762;-74
2021/03/16 09:39:31;;;;;;;7.05;4.80;;;;;;;4.64;40.12;101428.47;4974275;28;99612;-77
2021/03/16 09:42:09;;;;;;;10.05;5.10;;;;;;;4.61;40.25;101418.66;4972806;28;96977;-71
2021/03/16 09:44:39;;;;;;;6.30;5.75;;;;;;;4.58;40.19;101423.78;5006879;28;96726;-73
2021/03/16 09:47:08;;;;;;;8.32;5.38;;;;;;;4.61;40.37;101417.78;5007180;27;100916;-74
2021/03/16 09:49:38;;;;;;;6.70;5.60;;;;;;;4.57;40.28;101419.31;5007083;28;97020;-72
2021/03/16 09:52:06;;;;;;;12.35;5.53;;;;;;;4.62;40.29;101414.31;4970821;28;97072;-72
2021/03/16 09:54:38;;;;;;;9.57;6.03;;;;;;;4.73;40.17;101419.34;4978844;28;98471;-75
2021/03/16 09:57:07;;;;;;;6.32;5.65;;;;;;;4.79;40.19;101417.03;4964338;28;97999;-73
2021/03/16 09:59:35;;;;;;;7.95;6.10;;;;;;;4.90;40.05;101425.53;4965097;28;99889;-73
2021/03/16 10:02:22;;;;;;;15.65;6.55;;;;;;;4.90;40.01;101415.00;4968507;28;96726;-73
2021/03/16 10:04:50;;;;;;;17.73;6.95;;;;;;;5.01;39.91;101429.66;4989425;28;99577;-74
2021/03/16 10:07:24;;;;;;;11.07;6.15;;;;;;;4.95;39.87;101424.06;5004398;27;97706;-73
2021/03/16 10:09:52;;;;;;;10.23;6.60;;;;;;;5.03;40.09;101425.38;5003574;28;99794;-73
2021/03/16 10:12:21;;;;;;;7.22;6.05;;;;;;;5.10;39.87;101425.81;4971081;28;96810;-75
2021/03/16 10:14:50;;;;;;;12.25;6.07;;;;;;;5.19;39.80;101428.03;4970740;28;96871;-73
2021/03/16 10:17:32;;;;;;;9.45;6.15;;;;;;;5.18;39.63;101429.75;4966138;28;98208;-74
2021/03/16 10:20:01;;;;;;;14.13;5.88;;;;;;;5.25;39.80;101436.25;4965525;28;98172;-73
2021/03/16 10:22:29;;;;;;;9.48;5.28;;;;;;;5.26;39.57;101430.19;4997166;28;97387;-73
2021/03/16 10:24:57;;;;;;;9.77;5.10;;;;;;;5.38;39.29;101438.72;4968104;28;97076;-75
2021/03/16 10:27:26;;;;;;;9.73;7.05;;;;;;;5.43;39.58;101442.50;4987010;28;98519;-73
2021/03/16 10:29:53;;;;;;;10.40;5.28;;;;;;;5.49;39.47;101447.19;4985592;28;98847;-73
2021/03/16 10:32:40;;;;;;;7.03;5.10;;;;;;;5.60;39.12;101443.38;4968120;28;96839;-74
2021/03/16 10:35:08;;;;;;;13.63;6.57;;;;;;;5.63;39.06;101443.56;4973071;28;97273;-73
2021/03/16 10:37:43;;;;;;;5.88;5.43;;;;;;;5.62;39.02;101447.00;4968261;28;98765;-73
2021/03/16 10:40:12;;;;;;;6.47;5.80;;;;;;;5.58;39.28;101442.38;4997985;28;97253;-73
2021/03/16 10:42:39;;;;;;;9.23;5.75;;;;;;;5.50;39.41;101431.47;4996160;28;96983;-75
2021/03/16 10:45:07;;;;;;;13.98;6.13;;;;;;;5.48;39.30;101448.94;4971197;28;97295;-73
2021/03/16 10:47:35;;;;;;;9.82;5.60;;;;;;;5.48;39.14;101450.66;4973582;28;97120;-76
2021/03/16 10:50:06;;;;;;;7.97;5.93;;;;;;;5.57;39.18;101461.72;5005028;28;99825;-75
2021/03/16 10:52:33;;;;;;;8.95;5.40;;;;;;;5.59;39.10;101444.22;4971269;28;96921;-73
2021/03/16 10:55:01;;;;;;;6.30;5.28;;;;;;;5.60;39.38;101441.66;4987183;28;97308;-73
2021/03/16 10:57:29;;;;;;;8.77;5.35;;;;;;;5.62;39.25;101434.72;4954758;28;99599;-74
2021/03/16 10:59:56;;;;;;;10.80;5.07;;;;;;;5.63;39.13;101452.34;5006271;28;97599;-73
2021/03/16 11:02:24;;;;;;;8.43;4.85;;;;;;;5.71;39.12;101434.28;4974912;28;96969;-73
2021/03/16 11:04:52;;;;;;;7.68;4.72;;;;;;;5.65;39.15;101442.78;5005277;28;97486;-73
2021/03/16 11:07:20;;;;;;;4.88;4.47;;;;;;;5.73;39.15;101446.72;4972178;28;97846;-74
2021/03/16 11:09:47;;;;;;;11.05;6.05;;;;;;;5.81;39.06;101440.09;4974227;28;96884;-72
2021/03/16 11:12:16;;;;;;;5.20;4.80;;;;;;;5.83;38.81;101437.56;4972246;28;96999;-73
2021/03/16 11:14:45;;;;;;;10.70;4.72;;;;;;;5.89;39.04;101436.13;4971240;28;96934;-71
2021/03/16 11:17:12;;;;;;;5.50;4.45;;;;;;;5.95;39.00;101446.09;4976807;28;96768;-74
2021/03/16 11:19:40;;;;;;;6.40;4.35;;;;;;;5.86;38.97;101451.81;4971313;28;99704;-75
2021/03/16 11:22:07;;;;;;;6.72;4.53;;;;;;;5.87;38.87;101448.34;4973639;28;96880;-74
2021/03/16 11:24:34;;;;;;;4.13;3.80;;;;;;;5.92;38.54;101444.19;4977493;28;96923;-73
2021/03/16 11:27:09;;;;;;;5.60;4.10;;;;;;;5.94;38.60;101447.81;4976609;28;98562;-74
2021/03/16 11:29:36;;;;;;;6.88;5.00;;;;;;;5.99;38.64;101441.03;4975670;28;97992;-75
2021/03/16 11:32:03;;;;;;;7.75;4.13;;;;;;;6.11;38.67;101439.00;5007702;28;96839;-74
2021/03/16 11:34:49;;;;;;;6.00;4.47;;;;;;;6.21;38.50;101441.25;5010742;28;96850;-74
2021/03/16 11:37:34;;;;;;;4.15;3.90;;;;;;;6.25;38.42;101437.94;4973665;28;99632;-73
2021/03/16 11:40:21;;;;;;;3.53;3.33;;;;;;;6.27;38.28;101450.38;4978780;28;98040;-73
2021/03/16 11:43:07;;;;;;;3.85;3.53;;;;;;;6.25;38.30;101439.66;4980042;28;96988;-73
2021/03/16 11:45:52;;;;;;;5.47;3.50;;;;;;;6.21;38.21;101462.38;4977797;28;96784;-72
2021/03/16 11:48:38;;;;;;;5.78;3.50;;;;;;;6.34;37.90;101441.91;4973018;28;99888;-74
2021/03/16 11:51:24;;;;;;;4.95;3.53;;;;;;;6.36;37.60;101434.94;4965271;28;97626;-71
2021/03/16 11:54:10;;;;;;;6.18;3.85;;;;;;;6.38;37.75;101442.09;4973979;28;97022;-72
2021/03/16 11:56:57;;;;;;;6.72;3.45;;;;;;;6.34;37.75;101436.63;4974565;28;96916;-75
2021/03/16 11:59:42;;;;;;;5.07;4.22;;;;;;;6.32;37.62;101443.56;4968220;28;99403;-72
2021/03/16 12:02:28;;;;;;;4.10;3.70;;;;;;;6.26;37.95;101436.19;5008304;27;96948;-72
2021/03/16 12:05:14;;;;;;;6.13;4.20;;;;;;;6.31;37.90;101431.16;4979211;28;97153;-73
2021/03/16 12:08:00;;;;;;;5.40;4.15;;;;;;;6.31;37.49;101421.50;4971415;28;96952;-73
2021/03/16 12:10:46;;;;;;;8.13;4.72;;;;;;;6.33;37.96;101424.22;4976570;28;97160;-73
2021/03/16 12:13:33;;;;;;;7.43;4.63;;;;;;;6.29;37.79;101417.88;4972592;28;97717;-73
2021/03/16 12:16:19;;;;;;;4.22;3.58;;;;;;;6.32;37.81;101420.69;4972649;28;96808;-74
2021/03/16 12:19:05;;;;;;;5.45;3.63;;;;;;;6.34;37.48;101415.47;4973206;28;96872;-74
2021/03/16 12:21:50;;;;;;;7.95;4.07;;;;;;;6.44;37.77;101418.63;4974820;28;97200;-73
2021/03/16 12:24:36;;;;;;;4.93;3.70;;;;;;;6.54;37.47;101415.59;4977773;28;98187;-75
2021/03/16 12:27:21;;;;;;;8.20;3.85;;;;;;;6.63;37.30;101417.75;5007475;27;97536;-73
2021/03/16 12:30:08;;;;;;;8.10;3.67;;;;;;;6.75;37.04;101415.66;4972430;28;96942;-73
2021/03/16 12:32:54;;;;;;;5.88;3.70;;;;;;;6.78;36.98;101410.53;5005381;28;99641;-72
2021/03/16 12:35:40;;;;;;;7.13;3.10;;;;;;;6.89;37.06;101414.59;4973552;28;99292;-73
2021/03/16 12:38:26;;;;;;;3.22;3.03;;;;;;;6.95;37.00;101414.84;4974613;28;96808;-73